Time;durP1;ratioP1;P1;durP2;ratioP2;P2;SDS_P1;SDS_P2;PMS_P1;PMS_P2;Temp;Humidity;BMP_temperature;BMP_pressure;BME280_temperature;BME280_humidity;BME280_pressure;Samples;Min_cycle;Max_cycle;Signal;HPM_P1;HPM_P2
2021/10/17 00:01:37;;;;;;;5.20;4.70;;;;;;;4.95;94.81;96557.34;6433700;46;20185;-72
2021/10/17 00:06:40;;;;;;;6.82;4.97;;;;;;;4.86;94.83;96557.13;6434135;46;20884;-72
2021/10/17 00:11:43;;;;;;;6.25;4.90;;;;;;;4.87;94.65;96564.13;6433723;46;20268;-73
2021/10/17 00:16:45;;;;;;;7.25;5.20;;;;;;;4.86;94.74;96560.63;6433228;46;20099;-73
2021/10/17 00:21:48;;;;;;;6.43;5.05;;;;;;;4.83;94.41;96550.53;6433544;46;20493;-72
2021/10/17 00:26:50;;;;;;;6.70;5.07;;;;;;;4.81;94.55;96558.38;6433076;46;20095;-72
2021/10/17 00:31:52;;;;;;;9.50;6.05;;;;;;;4.82;94.64;96567.34;6433493;46;20547;-72
2021/10/17 00:36:55;;;;;;;7.28;5.20;;;;;;;4.72;94.27;96571.06;6432989;46;20091;-73
2021/10/17 00:41:59;;;;;;;8.63;5.68;;;;;;;4.67;94.83;96580.53;6420462;46;20099;-73
2021/10/17 00:47:01;;;;;;;9.77;5.95;;;;;;;4.63;94.78;96581.78;6433478;46;20086;-72
2021/10/17 00:52:04;;;;;;;10.05;5.90;;;;;;;4.72;94.43;96596.47;6433313;46;20086;-72
2021/10/17 00:57:06;;;;;;;8.63;6.05;;;;;;;4.70;94.54;96579.69;6433032;46;20090;-72
2021/10/17 01:02:09;;;;;;;8.90;6.22;;;;;;;4.84;94.49;96581.41;6420375;46;20104;-72
2021/10/17 01:07:12;;;;;;;8.93;6.22;;;;;;;5.00;95.07;96576.00;6432938;46;20086;-72
2021/10/17 01:12:14;;;;;;;12.20;6.72;;;;;;;5.01;96.15;96578.34;6433603;46;20910;-72
2021/10/17 01:17:17;;;;;;;8.43;6.38;;;;;;;5.02;96.25;96568.19;6432879;46;20090;-74
2021/10/17 01:22:24;;;;;;;6.57;5.40;;;;;;;5.02;96.97;96563.44;6433117;46;20515;-74
2021/10/17 01:27:26;;;;;;;8.82;6.00;;;;;;;5.12;95.87;96558.19;6433647;46;20090;-73
2021/10/17 01:32:28;;;;;;;6.18;5.38;;;;;;;5.10;94.89;96547.66;6433386;46;20094;-72
2021/10/17 01:37:31;;;;;;;5.70;4.68;;;;;;;4.99;94.93;96544.38;6432799;46;20108;-72
2021/10/17 01:42:33;;;;;;;6.55;5.10;;;;;;;4.96;94.28;96542.44;6434978;46;20134;-71
2021/10/17 01:47:36;;;;;;;7.55;4.90;;;;;;;4.79;94.28;96543.56;6434131;46;20542;-72
2021/10/17 01:52:38;;;;;;;6.50;5.00;;;;;;;4.77;94.29;96538.50;6434156;46;20081;-72
2021/10/17 01:57:41;;;;;;;7.95;5.50;;;;;;;4.60;94.73;96533.34;6434390;46;20667;-71
2021/10/17 02:02:43;;;;;;;6.55;4.95;;;;;;;4.47;94.61;96541.38;6434259;46;20099;-72
2021/10/17 02:07:46;;;;;;;7.15;5.10;;;;;;;4.39;94.17;96533.72;6434337;46;20090;-72
2021/10/17 02:12:48;;;;;;;6.75;5.13;;;;;;;4.18;95.01;96527.38;6434915;46;20095;-73
2021/10/17 02:17:50;;;;;;;5.53;4.60;;;;;;;4.13;95.62;96527.88;6421002;46;20104;-73
2021/10/17 02:22:52;;;;;;;6.13;5.00;;;;;;;4.16;95.63;96532.50;6434387;46;20099;-72
2021/10/17 02:27:55;;;;;;;6.32;4.68;;;;;;;4.18;94.74;96538.31;6434127;46;20090;-73
2021/10/17 02:32:57;;;;;;;5.88;4.75;;;;;;;4.10;95.27;96541.59;6434135;46;20104;-72
2021/10/17 02:38:00;;;;;;;6.15;4.70;;;;;;;4.01;95.49;96539.38;6434843;46;20086;-72
2021/10/17 02:43:02;;;;;;;7.95;4.90;;;;;;;3.96;94.83;96541.81;6434159;46;20093;-71
2021/10/17 02:48:05;;;;;;;5.75;4.63;;;;;;;3.91;94.79;96545.78;6433791;46;20095;-72
2021/10/17 02:53:07;;;;;;;5.68;4.50;;;;;;;3.89;94.67;96541.94;6434130;46;20090;-72
2021/10/17 02:58:10;;;;;;;6.40;4.45;;;;;;;4.07;94.15;96542.44;6434021;46;20086;-71
2021/10/17 03:03:12;;;;;;;4.30;3.90;;;;;;;3.93;94.95;96542.66;6434318;46;20529;-71
2021/10/17 03:08:15;;;;;;;6.72;4.05;;;;;;;3.89;95.15;96548.16;6433640;46;20789;-71
2021/10/17 03:13:17;;;;;;;5.93;4.90;;;;;;;3.89;94.87;96542.69;6433867;46;20086;-72
2021/10/17 03:18:20;;;;;;;7.80;4.05;;;;;;;3.86;94.93;96545.50;6433649;46;20106;-72
2021/10/17 03:23:23;;;;;;;6.10;4.35;;;;;;;3.75;94.94;96542.91;6433895;46;20215;-71
2021/10/17 03:28:25;;;;;;;5.75;4.40;;;;;;;3.71;94.57;96541.41;6434495;46;20113;-72
2021/10/17 03:33:28;;;;;;;5.03;4.15;;;;;;;3.67;94.30;96551.59;6420705;46;20678;-71
2021/10/17 03:38:31;;;;;;;3.92;3.53;;;;;;;3.67;94.34;96546.13;6433762;46;20559;-71
2021/10/17 03:43:33;;;;;;;5.45;3.80;;;;;;;3.55;94.87;96547.50;6433699;46;20086;-72
2021/10/17 03:48:36;;;;;;;4.25;3.75;;;;;;;3.52;94.72;96556.50;6420805;46;20104;-72
2021/10/17 03:53:38;;;;;;;5.35;4.00;;;;;;;3.55;94.99;96545.50;6433677;46;20100;-71
2021/10/17 03:58:40;;;;;;;5.75;3.88;;;;;;;3.58;94.34;96552.13;6433508;46;20081;-72
2021/10/17 04:03:43;;;;;;;5.15;3.50;;;;;;;3.59;95.01;96542.75;6434005;46;20144;-72
2021/10/17 04:08:45;;;;;;;6.65;4.18;;;;;;;3.77;95.45;96534.28;6433868;46;20240;-71
2021/10/17 04:13:48;;;;;;;6.53;3.88;;;;;;;3.90;94.51;96538.78;6433580;46;20090;-72
2021/10/17 04:18:50;;;;;;;6.93;4.65;;;;;;;3.88;94.92;96527.50;6433852;46;20100;-72
2021/10/17 04:23:52;;;;;;;5.97;4.28;;;;;;;3.96;94.64;96530.88;6433520;46;20105;-71
2021/10/17 04:28:55;;;;;;;6.47;4.57;;;;;;;3.98;94.82;96534.75;6433280;46;20094;-71
2021/10/17 04:33:57;;;;;;;7.03;5.28;;;;;;;3.97;95.74;96529.69;6433744;46;20099;-72
2021/10/17 04:38:59;;;;;;;11.88;6.80;;;;;;;4.01;97.13;96536.66;6433243;46;20086;-72
2021/10/17 04:44:02;;;;;;;7.90;5.40;;;;;;;4.11;96.25;96535.72;6433233;46;20188;-72
2021/10/17 04:49:05;;;;;;;7.38;5.32;;;;;;;3.99;96.31;96525.38;6433197;46;20086;-71
2021/10/17 04:54:07;;;;;;;6.43;4.95;;;;;;;3.97;96.69;96518.75;6433381;46;20081;-71
2021/10/17 04:59:09;;;;;;;6.68;5.03;;;;;;;3.96;96.15;96515.25;6432972;46;20104;-71
2021/10/17 05:04:12;;;;;;;7.05;5.40;;;;;;;3.88;95.99;96508.34;6433247;46;20182;-73
2021/10/17 05:09:14;;;;;;;6.43;5.03;;;;;;;3.82;95.81;96509.25;6432841;46;20113;-73
2021/10/17 05:14:16;;;;;;;6.95;4.95;;;;;;;3.60;95.37;96520.47;6432789;46;20090;-72
2021/10/17 05:19:19;;;;;;;7.03;5.40;;;;;;;3.48;95.87;96533.94;6419566;46;20090;-71
2021/10/17 05:24:21;;;;;;;7.32;4.70;;;;;;;3.50;95.86;96531.56;6432778;46;20099;-71
2021/10/17 05:29:23;;;;;;;5.88;4.82;;;;;;;3.39;95.40;96525.47;6433016;46;20099;-71
2021/10/17 05:34:26;;;;;;;5.82;4.25;;;;;;;3.37;94.96;96528.56;6433292;46;20104;-72
2021/10/17 05:39:28;;;;;;;7.70;5.25;;;;;;;3.39;95.06;96530.91;6432733;46;20126;-71
2021/10/17 05:44:31;;;;;;;4.85;4.22;;;;;;;3.37;94.69;96528.56;6433289;46;20099;-71
2021/10/17 05:49:33;;;;;;;5.55;4.60;;;;;;;3.55;94.68;96531.09;6432576;46;20630;-71
2021/10/17 05:54:35;;;;;;;6.75;4.55;;;;;;;3.40;93.95;96513.34;6433263;46;20095;-71
2021/10/17 05:59:38;;;;;;;5.63;4.68;;;;;;;3.57;94.12;96537.69;6432603;46;20104;-71
2021/10/17 06:04:40;;;;;;;8.20;5.18;;;;;;;3.71;93.21;96547.63;6432199;46;20086;-71
2021/10/17 06:09:42;;;;;;;5.05;4.30;;;;;;;3.68;93.41;96547.69;6432335;46;20100;-71
2021/10/17 06:14:45;;;;;;;5.95;4.63;;;;;;;3.71;93.49;96552.34;6433201;46;20191;-71
2021/10/17 06:19:51;;;;;;;7.35;4.55;;;;;;;3.70;92.65;96557.03;6432766;46;20187;-71
2021/10/17 06:24:54;;;;;;;8.25;5.25;;;;;;;3.78;93.52;96555.72;6433018;46;20086;-68
2021/10/17 06:29:56;;;;;;;5.40;4.50;;;;;;;3.88;93.83;96557.56;6420880;46;20108;-71
2021/10/17 06:34:58;;;;;;;7.35;4.07;;;;;;;4.02;94.12;96565.56;6433955;46;20666;-71
2021/10/17 06:40:01;;;;;;;3.92;3.38;;;;;;;4.21;93.62;96570.34;6433807;46;20537;-71
2021/10/17 06:45:04;;;;;;;5.97;4.07;;;;;;;4.46;93.38;96583.59;6434218;46;20609;-70
2021/10/17 06:50:06;;;;;;;5.35;4.47;;;;;;;4.42;94.59;96584.84;6434026;46;20094;-72
2021/10/17 06:55:09;;;;;;;3.83;3.42;;;;;;;4.56;94.27;96584.63;6434104;46;20112;-71
2021/10/17 07:00:12;;;;;;;3.70;3.40;;;;;;;4.80;94.35;96592.41;6434277;46;20170;-70
2021/10/17 07:05:15;;;;;;;4.28;3.42;;;;;;;4.87;94.49;96605.19;6433983;46;20081;-71
2021/10/17 07:10:17;;;;;;;4.10;3.72;;;;;;;5.29;92.84;96592.72;6433694;46;20104;-71
2021/10/17 07:15:19;;;;;;;10.73;3.45;;;;;;;5.69;91.67;96594.25;6434268;46;20113;-71
2021/10/17 07:20:22;;;;;;;3.92;3.63;;;;;;;5.44;92.90;96594.75;6420491;46;20507;-71
2021/10/17 07:25:24;;;;;;;3.63;3.33;;;;;;;5.89;92.35;96594.22;6434162;46;20095;-72
2021/10/17 07:30:27;;;;;;;4.00;3.63;;;;;;;6.09;91.38;96600.44;6433809;46;20207;-71
2021/10/17 07:35:30;;;;;;;4.75;4.18;;;;;;;6.06;92.57;96596.56;6433304;46;20538;-71
2021/10/17 07:40:32;;;;;;;3.95;3.63;;;;;;;6.40;90.83;96596.97;6433793;46;20095;-70
2021/10/17 07:45:35;;;;;;;5.20;4.13;;;;;;;6.45;90.41;96601.16;6433016;46;20103;-70
2021/10/17 07:50:37;;;;;;;4.68;4.03;;;;;;;6.51;91.42;96599.47;6431018;46;20099;-70
2021/10/17 07:55:44;;;;;;;5.15;4.38;;;;;;;6.60;93.01;96599.66;6431260;46;20889;-70
2021/10/17 08:00:47;;;;;;;4.15;3.63;;;;;;;6.97;92.51;96607.34;6431941;46;20626;-72
2021/10/17 08:05:49;;;;;;;4.88;4.47;;;;;;;6.96;93.66;96608.56;6430657;46;20138;-71
2021/10/17 08:10:52;;;;;;;7.75;5.30;;;;;;;6.93;93.03;96606.66;6433653;46;20108;-71
2021/10/17 08:15:55;;;;;;;5.63;4.82;;;;;;;7.08;94.54;96609.81;6433272;46;20255;-71
2021/10/17 08:20:57;;;;;;;5.90;4.90;;;;;;;6.94;96.13;96615.69;6434329;46;20099;-72
2021/10/17 08:26:00;;;;;;;4.70;4.22;;;;;;;7.15;95.42;96615.88;6433195;46;20182;-72
2021/10/17 08:31:03;;;;;;;6.50;5.15;;;;;;;7.61;94.33;96614.66;6420141;46;20728;-72
2021/10/17 08:36:05;;;;;;;6.45;5.07;;;;;;;7.84;93.33;96627.38;6432996;46;20104;-70
2021/10/17 08:41:28;;;;;;;5.00;4.50;;;;;;;8.13;91.23;96628.06;6428566;46;20086;-71
2021/10/17 08:46:33;;;;;;;6.18;5.57;;;;;;;8.30;90.85;96631.56;6431636;46;20626;-72
2021/10/17 08:51:35;;;;;;;6.07;5.38;;;;;;;8.34;87.11;96637.72;6432522;46;20191;-70
2021/10/17 08:56:38;;;;;;;5.45;4.95;;;;;;;8.63;87.78;96630.09;6431815;46;20086;-71
2021/10/17 09:01:40;;;;;;;5.82;5.13;;;;;;;9.04;87.49;96637.44;6429842;46;20099;-71
2021/10/17 09:06:46;;;;;;;5.13;4.57;;;;;;;9.38;85.62;96629.19;6428390;46;20622;-70
2021/10/17 09:11:56;;;;;;;6.07;5.47;;;;;;;9.44;85.44;96629.38;6431242;46;20094;-69
2021/10/17 09:16:59;;;;;;;6.35;5.75;;;;;;;9.22;88.69;96624.59;6430633;46;20086;-70
2021/10/17 09:22:09;;;;;;;6.25;5.60;;;;;;;9.63;86.07;96623.56;6429463;46;20095;-70
2021/10/17 09:27:16;;;;;;;6.70;5.60;;;;;;;10.23;84.03;96620.59;6430990;46;20086;-70
2021/10/17 09:32:22;;;;;;;8.18;6.50;;;;;;;10.62;80.44;96633.66;6432023;46;20108;-70
2021/10/17 09:37:37;;;;;;;6.13;5.22;;;;;;;10.70;80.04;96621.09;6429711;46;20524;-70
2021/10/17 09:42:41;;;;;;;6.72;5.55;;;;;;;11.22;78.06;96629.22;6429869;46;20635;-70
2021/10/17 09:47:43;;;;;;;5.78;5.18;;;;;;;11.46;76.13;96630.19;6427534;46;20104;-70
2021/10/17 09:52:57;;;;;;;6.13;5.53;;;;;;;11.69;76.26;96634.34;6428700;46;20095;-70
2021/10/17 09:58:03;;;;;;;7.82;6.88;;;;;;;11.67;76.54;96639.56;6431554;46;20090;-70
2021/10/17 10:03:07;;;;;;;7.43;6.60;;;;;;;11.93;77.31;96631.72;6432814;46;20117;-69
2021/10/17 10:08:11;;;;;;;8.80;6.28;;;;;;;12.06;74.36;96637.84;6430110;46;20104;-70
2021/10/17 10:13:17;;;;;;;10.52;6.68;;;;;;;11.70;76.52;96633.13;6430766;46;20107;-70
2021/10/17 10:18:21;;;;;;;8.57;6.63;;;;;;;12.27;73.57;96625.81;6428459;46;20510;-70
2021/10/17 10:23:25;;;;;;;6.72;6.03;;;;;;;12.52;72.47;96630.97;6428786;46;20160;-70
2021/10/17 10:28:27;;;;;;;6.13;5.55;;;;;;;12.76;72.77;96628.25;6431163;46;20108;-70
2021/10/17 10:33:41;;;;;;;7.03;6.32;;;;;;;13.05;74.26;96630.44;6433409;46;20192;-70
2021/10/17 10:38:52;;;;;;;8.50;7.05;;;;;;;13.01;73.63;96624.25;6433534;46;20095;-70
2021/10/17 10:44:11;;;;;;;8.23;6.78;;;;;;;13.57;71.41;96625.00;6433384;46;20094;-70
2021/10/17 10:49:41;;;;;;;7.93;6.38;;;;;;;14.37;67.23;96610.09;6433494;46;20086;-70
2021/10/17 10:54:43;;;;;;;7.00;6.03;;;;;;;13.96;69.10;96606.31;6433817;46;20103;-70
2021/10/17 11:00:13;;;;;;;7.22;6.53;;;;;;;13.99;68.19;96605.34;6433534;46;20099;-70
2021/10/17 11:05:16;;;;;;;7.43;6.72;;;;;;;13.54;71.23;96600.19;6433743;46;20536;-70
2021/10/17 11:10:22;;;;;;;8.25;6.93;;;;;;;13.09;72.29;96595.75;6433098;46;20241;-70
2021/10/17 11:15:26;;;;;;;7.47;6.45;;;;;;;13.99;68.81;96602.59;6430880;46;20183;-71
2021/10/17 11:20:37;;;;;;;7.43;6.43;;;;;;;14.54;70.19;96586.09;6432764;46;20090;-70
2021/10/17 11:25:39;;;;;;;7.93;7.10;;;;;;;14.43;69.92;96587.94;6431472;46;20090;-70
2021/10/17 11:30:43;;;;;;;11.95;7.70;;;;;;;14.36;68.06;96575.94;6432788;46;20108;-70
2021/10/17 11:35:47;;;;;;;9.63;8.13;;;;;;;14.58;66.12;96581.09;6431357;46;20091;-70
2021/10/17 11:40:49;;;;;;;8.02;7.15;;;;;;;14.69;68.42;96577.72;6431776;46;20104;-70
2021/10/17 11:46:01;;;;;;;12.80;8.02;;;;;;;14.33;67.66;96567.81;6431925;46;20108;-71
2021/10/17 11:51:06;;;;;;;8.98;7.60;;;;;;;14.74;68.66;96558.34;6431766;46;20099;-70
2021/10/17 11:56:10;;;;;;;9.95;7.35;;;;;;;15.29;64.67;96540.84;6435937;46;20111;-70
2021/10/17 12:01:17;;;;;;;9.98;7.47;;;;;;;15.79;64.94;96545.75;6433196;46;20179;-70
2021/10/17 12:06:21;;;;;;;10.05;7.70;;;;;;;15.32;65.71;96539.84;6433314;46;20098;-70
2021/10/17 12:11:24;;;;;;;12.27;9.32;;;;;;;15.11;65.65;96541.13;6433728;46;20099;-70
2021/10/17 12:16:31;;;;;;;12.70;9.30;;;;;;;15.06;68.26;96528.69;6429573;46;20100;-71
2021/10/17 12:21:42;;;;;;;16.45;9.77;;;;;;;15.57;67.21;96528.81;6417823;46;20096;-70
2021/10/17 12:26:49;;;;;;;13.05;9.57;;;;;;;15.36;67.98;96524.47;6387808;46;20539;-69
2021/10/17 12:31:56;;;;;;;15.38;10.32;;;;;;;14.74;69.29;96519.41;6413128;46;20643;-69
2021/10/17 12:36:59;;;;;;;12.93;9.18;;;;;;;15.13;66.98;96528.25;6447323;46;20117;-70
2021/10/17 12:42:03;;;;;;;12.02;9.25;;;;;;;15.64;67.80;96516.47;6455181;45;20108;-72
2021/10/17 12:47:06;;;;;;;10.65;8.55;;;;;;;15.64;63.50;96510.88;6465175;45;20170;-71
2021/10/17 12:52:09;;;;;;;11.95;8.95;;;;;;;15.40;67.11;96508.31;6465839;46;20209;-70
2021/10/17 12:57:11;;;;;;;11.50;8.18;;;;;;;15.75;66.97;96508.22;6464807;45;20082;-70
2021/10/17 13:02:15;;;;;;;12.85;8.73;;;;;;;15.50;64.37;96514.53;6444942;46;20237;-69
2021/10/17 13:07:20;;;;;;;11.30;7.95;;;;;;;15.24;65.17;96511.69;6419109;46;20103;-70
2021/10/17 13:12:24;;;;;;;9.23;7.55;;;;;;;15.33;66.92;96516.34;6430807;46;20188;-69
2021/10/17 13:17:27;;;;;;;8.90;7.93;;;;;;;14.81;67.76;96512.66;6432787;46;20081;-70
2021/10/17 13:22:30;;;;;;;11.25;8.52;;;;;;;14.93;69.69;96514.31;6442817;46;20085;-71
2021/10/17 13:27:32;;;;;;;8.85;7.60;;;;;;;15.75;66.60;96511.75;6434764;46;20701;-69
2021/10/17 13:32:35;;;;;;;9.45;7.68;;;;;;;15.62;66.04;96514.16;6432458;46;20098;-71
2021/10/17 13:37:42;;;;;;;8.43;7.22;;;;;;;15.49;65.68;96521.38;6432113;46;20091;-68
2021/10/17 13:42:44;;;;;;;9.05;7.70;;;;;;;15.24;67.00;96525.63;6426924;46;20091;-69
2021/10/17 13:47:47;;;;;;;9.90;7.78;;;;;;;14.79;67.17;96520.72;6433299;46;20189;-70
2021/10/17 13:52:50;;;;;;;7.88;7.00;;;;;;;15.48;67.76;96525.41;6435108;46;20095;-71
2021/10/17 13:57:53;;;;;;;9.48;7.68;;;;;;;16.18;64.06;96525.81;6446950;46;20082;-70
2021/10/17 14:02:55;;;;;;;10.70;8.68;;;;;;;16.32;61.41;96525.69;6461246;46;20098;-71
2021/10/17 14:07:58;;;;;;;10.70;9.57;;;;;;;15.74;63.97;96532.50;6425484;46;20130;-70
2021/10/17 14:13:00;;;;;;;10.25;8.50;;;;;;;15.48;65.81;96533.75;6444158;46;20134;-71
2021/10/17 14:18:02;;;;;;;10.52;9.43;;;;;;;14.69;69.18;96516.53;6437848;46;20086;-71
2021/10/17 14:23:05;;;;;;;15.07;10.00;;;;;;;14.00;72.16;96512.41;6436211;46;20082;-69
2021/10/17 14:28:07;;;;;;;13.70;11.02;;;;;;;13.22;75.60;96506.69;6435481;46;20103;-71
2021/10/17 14:33:10;;;;;;;12.35;9.88;;;;;;;13.58;74.88;96523.81;6423072;46;20603;-69
2021/10/17 14:38:12;;;;;;;11.10;9.25;;;;;;;13.50;75.43;96528.19;6431282;46;20188;-71
2021/10/17 14:43:17;;;;;;;10.60;9.43;;;;;;;13.41;75.60;96528.28;6430711;46;20627;-69
2021/10/17 14:48:22;;;;;;;12.55;10.45;;;;;;;12.99;77.67;96524.88;6433414;46;20085;-71
2021/10/17 14:53:24;;;;;;;13.43;10.63;;;;;;;12.49;80.37;96531.34;6433399;46;20733;-70
2021/10/17 14:58:29;;;;;;;13.13;9.93;;;;;;;12.43;81.63;96525.69;6429574;46;20126;-70
2021/10/17 15:03:32;;;;;;;12.35;9.70;;;;;;;12.38;83.23;96526.31;6435232;46;20090;-69
2021/10/17 15:08:34;;;;;;;14.80;10.90;;;;;;;12.25;83.97;96528.53;6435171;46;20094;-70
2021/10/17 15:13:37;;;;;;;12.50;10.30;;;;;;;12.00;85.59;96534.47;6436252;46;20086;-69
2021/10/17 15:18:43;;;;;;;13.20;10.00;;;;;;;12.15;85.32;96535.34;6436879;46;20086;-69
2021/10/17 15:23:45;;;;;;;16.35;12.07;;;;;;;11.89;86.72;96531.44;6434071;46;20100;-70
2021/10/17 15:28:48;;;;;;;16.60;12.27;;;;;;;11.70;87.86;96530.69;6436680;46;20087;-70
2021/10/17 15:33:50;;;;;;;15.20;11.25;;;;;;;11.59;88.84;96532.38;6435791;46;20095;-69
2021/10/17 15:38:53;;;;;;;13.55;11.20;;;;;;;11.47;89.47;96534.06;6436045;46;20090;-69
2021/10/17 15:43:55;;;;;;;14.75;11.13;;;;;;;11.43;89.72;96527.94;6437265;46;20090;-70
2021/10/17 15:49:00;;;;;;;14.30;10.10;;;;;;;11.23;90.89;96527.66;6445896;46;20320;-69
2021/10/17 15:54:03;;;;;;;15.18;10.75;;;;;;;11.00;92.51;96533.78;6443897;46;20120;-69
2021/10/17 15:59:06;;;;;;;14.05;10.50;;;;;;;10.82;92.50;96545.59;6438310;46;20102;-70
2021/10/17 16:04:09;;;;;;;15.10;10.93;;;;;;;10.64;93.56;96542.78;6436887;46;20104;-70
2021/10/17 16:09:11;;;;;;;13.43;10.35;;;;;;;10.39;94.99;96546.56;6434843;46;20094;-69
2021/10/17 16:14:14;;;;;;;13.90;11.07;;;;;;;10.36;94.67;96549.44;6435341;46;20542;-69
2021/10/17 16:19:16;;;;;;;13.02;10.00;;;;;;;10.13;95.13;96541.69;6435478;46;20847;-69
2021/10/17 16:24:18;;;;;;;17.02;10.68;;;;;;;9.98;96.03;96558.00;6435607;46;20086;-69
2021/10/17 16:29:22;;;;;;;15.32;10.30;;;;;;;9.81;96.82;96557.47;6435381;46;20520;-69
2021/10/17 16:34:25;;;;;;;15.85;10.32;;;;;;;9.67;97.13;96555.22;6431315;46;20590;-68
2021/10/17 16:39:27;;;;;;;19.33;10.90;;;;;;;9.52;97.97;96556.19;6417488;46;20103;-69
2021/10/17 16:44:30;;;;;;;13.75;11.05;;;;;;;9.48;97.96;96559.06;6429194;46;20306;-70
2021/10/17 16:49:32;;;;;;;13.15;10.52;;;;;;;9.24;98.37;96557.97;6427964;46;20108;-69
2021/10/17 16:54:36;;;;;;;15.82;11.15;;;;;;;9.11;98.50;96565.53;6422457;46;20233;-69
2021/10/17 16:59:39;;;;;;;14.45;11.05;;;;;;;8.98;98.98;96565.56;6437490;46;20200;-71
2021/10/17 17:04:43;;;;;;;16.38;11.93;;;;;;;8.95;99.25;96565.69;6435288;46;20104;-69
2021/10/17 17:09:45;;;;;;;15.10;10.93;;;;;;;8.77;99.17;96560.78;6420046;46;20104;-70
2021/10/17 17:14:47;;;;;;;15.77;11.00;;;;;;;8.89;100.00;96570.22;6432069;46;20541;-71
2021/10/17 17:19:50;;;;;;;17.73;12.57;;;;;;;8.81;100.00;96577.19;6430377;46;20086;-71
2021/10/17 17:24:52;;;;;;;19.80;12.77;;;;;;;8.62;100.00;96571.47;6433327;46;20666;-71
2021/10/17 17:29:55;;;;;;;21.08;12.13;;;;;;;8.45;100.00;96570.09;6434683;46;20086;-70
2021/10/17 17:34:57;;;;;;;18.67;13.23;;;;;;;8.33;100.00;96581.09;6436450;46;20090;-70
2021/10/17 17:40:02;;;;;;;19.65;13.32;;;;;;;8.37;100.00;96579.78;6435243;46;20095;-71
2021/10/17 17:45:05;;;;;;;16.90;12.20;;;;;;;8.31;100.00;96587.03;6435604;46;20091;-69
2021/10/17 17:50:09;;;;;;;17.27;12.52;;;;;;;8.24;100.00;96584.47;6435261;46;20108;-70
2021/10/17 17:55:16;;;;;;;20.02;11.82;;;;;;;8.14;100.00;96591.06;6434650;46;20237;-72
2021/10/17 18:00:18;;;;;;;18.98;11.85;;;;;;;8.06;100.00;96598.00;6434286;46;20100;-69
2021/10/17 18:05:21;;;;;;;16.80;12.43;;;;;;;7.97;100.00;96603.41;6437021;46;20181;-70
2021/10/17 18:10:23;;;;;;;16.15;10.85;;;;;;;7.94;100.00;96609.75;6450895;46;20656;-70
2021/10/17 18:15:26;;;;;;;15.02;10.23;;;;;;;7.79;100.00;96608.63;6440724;46;20120;-71
2021/10/17 18:20:28;;;;;;;14.57;10.63;;;;;;;7.77;99.75;96608.31;6436464;46;20090;-71
2021/10/17 18:25:35;;;;;;;14.60;10.23;;;;;;;7.57;99.43;96602.22;6440330;46;20091;-76
2021/10/17 18:30:39;;;;;;;17.60;11.05;;;;;;;7.69;100.00;96606.97;6466304;46;20090;-72
2021/10/17 18:35:41;;;;;;;16.35;9.80;;;;;;;7.90;99.07;96618.13;6463396;46;20098;-72
2021/10/17 18:40:43;;;;;;;18.00;11.70;;;;;;;8.19;98.23;96620.81;6460609;46;20537;-71
2021/10/17 18:45:46;;;;;;;17.58;11.07;;;;;;;8.11;99.57;96626.97;6462449;46;20099;-71
2021/10/17 18:50:48;;;;;;;17.65;11.20;;;;;;;8.19;100.00;96639.28;6449697;46;20102;-69
2021/10/17 18:55:51;;;;;;;14.60;10.90;;;;;;;8.18;99.30;96638.56;6426849;46;20130;-70
2021/10/17 19:00:54;;;;;;;13.32;9.90;;;;;;;8.06;98.98;96636.53;6438097;46;20107;-70
2021/10/17 19:05:57;;;;;;;19.65;13.77;;;;;;;8.00;97.11;96645.78;6435938;46;20697;-70
2021/10/17 19:11:01;;;;;;;17.27;10.07;;;;;;;8.05;97.64;96651.50;6436783;46;20090;-71
2021/10/17 19:16:03;;;;;;;12.77;9.48;;;;;;;7.72;98.01;96655.59;6435972;46;20104;-72
2021/10/17 19:21:06;;;;;;;12.68;8.52;;;;;;;7.73;98.02;96652.44;6435346;46;20090;-72
2021/10/17 19:26:08;;;;;;;12.90;8.52;;;;;;;7.62;98.30;96642.94;6436478;46;20082;-70
2021/10/17 19:31:12;;;;;;;10.15;8.23;;;;;;;7.25;98.07;96655.31;6436073;46;20086;-71
2021/10/17 19:36:15;;;;;;;10.43;7.93;;;;;;;7.01;99.65;96662.97;6434835;46;20091;-71
2021/10/17 19:41:17;;;;;;;9.45;7.57;;;;;;;7.12;98.45;96649.72;6435780;46;20097;-69
2021/10/17 19:46:20;;;;;;;8.13;7.03;;;;;;;7.18;98.57;96669.22;6435047;46;20086;-70
2021/10/17 19:51:23;;;;;;;13.82;7.57;;;;;;;7.25;97.66;96669.03;6434221;46;20104;-71
2021/10/17 19:56:26;;;;;;;9.65;7.28;;;;;;;7.19;96.98;96665.28;6434105;46;20112;-71
2021/10/17 20:01:29;;;;;;;8.85;6.38;;;;;;;7.21;96.74;96669.13;6434925;46;20240;-71
2021/10/17 20:06:32;;;;;;;8.98;7.20;;;;;;;7.18;96.65;96675.50;6434234;46;20081;-70
2021/10/17 20:11:34;;;;;;;8.63;7.07;;;;;;;7.07;96.65;96680.50;6434610;46;20540;-70
2021/10/17 20:16:37;;;;;;;8.98;6.93;;;;;;;6.98;96.82;96685.03;6434821;46;20187;-71
2021/10/17 20:21:50;;;;;;;8.73;7.15;;;;;;;6.99;96.58;96692.06;6435564;46;20675;-72
2021/10/17 20:26:52;;;;;;;8.93;7.53;;;;;;;6.86;97.72;96693.94;6434585;46;20095;-70
2021/10/17 20:31:55;;;;;;;10.75;8.00;;;;;;;6.80;97.84;96690.97;6435051;46;20663;-70
2021/10/17 20:37:01;;;;;;;9.70;7.28;;;;;;;6.79;97.51;96694.91;6434081;46;20099;-72
2021/10/17 20:42:08;;;;;;;9.75;7.22;;;;;;;6.80;97.10;96693.72;6434336;46;20104;-70
2021/10/17 20:47:11;;;;;;;9.57;7.47;;;;;;;6.74;96.89;96713.88;6433911;46;20086;-70
2021/10/17 20:52:14;;;;;;;12.90;7.50;;;;;;;6.71;97.31;96717.47;6437067;46;20223;-70
2021/10/17 20:57:17;;;;;;;8.85;7.00;;;;;;;6.80;96.67;96718.44;6436307;46;20102;-71
2021/10/17 21:02:20;;;;;;;10.05;7.28;;;;;;;6.85;96.10;96728.88;6434261;46;20855;-70
2021/10/17 21:07:22;;;;;;;7.20;6.18;;;;;;;6.83;96.21;96728.53;6434045;46;20529;-70
2021/10/17 21:12:25;;;;;;;9.77;7.53;;;;;;;6.60;98.47;96714.97;6433951;46;20129;-70
2021/10/17 21:17:28;;;;;;;11.10;8.15;;;;;;;6.69;98.55;96715.16;6433243;46;20099;-70
2021/10/17 21:22:31;;;;;;;8.65;7.03;;;;;;;6.66;98.62;96724.22;6433200;46;20104;-70
2021/10/17 21:27:34;;;;;;;8.80;7.68;;;;;;;6.77;98.85;96722.03;6419129;46;20086;-72
2021/10/17 21:32:36;;;;;;;13.98;9.85;;;;;;;6.79;98.00;96747.09;6433241;46;20085;-70
2021/10/17 21:37:39;;;;;;;15.43;11.07;;;;;;;6.74;100.00;96744.09;6433273;46;20199;-71
2021/10/17 21:42:41;;;;;;;12.05;8.52;;;;;;;7.06;98.98;96738.59;6434017;46;20086;-71
2021/10/17 21:47:44;;;;;;;11.05;7.72;;;;;;;6.98;97.94;96743.50;6433506;46;20090;-69
2021/10/17 21:52:46;;;;;;;13.73;10.10;;;;;;;6.53;100.00;96750.81;6441909;46;20094;-71
2021/10/17 21:57:49;;;;;;;10.15;8.15;;;;;;;6.59;100.00;96759.31;6436063;46;20662;-72
2021/10/17 22:02:51;;;;;;;14.63;10.15;;;;;;;6.68;99.97;96760.28;6435085;46;20654;-71
2021/10/17 22:07:53;;;;;;;12.20;9.07;;;;;;;6.72;99.85;96771.94;6435762;46;20423;-70
2021/10/17 22:12:56;;;;;;;11.40;8.88;;;;;;;6.78;99.71;96758.50;6438247;46;20349;-69
2021/10/17 22:17:59;;;;;;;10.52;8.88;;;;;;;6.88;99.68;96765.72;6437635;46;20113;-72
2021/10/17 22:23:01;;;;;;;12.68;8.88;;;;;;;6.82;100.00;96768.22;6432702;46;20090;-72
2021/10/17 22:28:04;;;;;;;10.32;8.00;;;;;;;7.09;99.83;96768.75;6433684;46;20090;-71
2021/10/17 22:33:07;;;;;;;11.13;8.55;;;;;;;7.29;98.38;96767.91;6433787;46;20139;-72
2021/10/17 22:38:09;;;;;;;11.95;8.75;;;;;;;7.33;98.88;96769.34;6433304;46;20107;-70
2021/10/17 22:43:12;;;;;;;14.75;9.80;;;;;;;7.29;99.21;96767.91;6433240;46;20082;-69
2021/10/17 22:48:14;;;;;;;19.02;9.85;;;;;;;7.18;100.00;96777.19;6433213;46;20090;-72
2021/10/17 22:53:16;;;;;;;12.13;8.32;;;;;;;7.23;100.00;96784.91;6433380;46;20541;-70
2021/10/17 22:58:19;;;;;;;17.27;9.77;;;;;;;7.24;100.00;96778.22;6451808;46;20145;-71
2021/10/17 23:03:21;;;;;;;11.30;8.43;;;;;;;7.26;100.00;96774.28;6458672;46;20091;-71
2021/10/17 23:08:25;;;;;;;11.45;8.88;;;;;;;7.48;100.00;96775.28;6462331;46;20604;-71
2021/10/17 23:13:28;;;;;;;15.40;8.98;;;;;;;7.33;100.00;96774.09;6446639;46;20192;-71
2021/10/17 23:18:30;;;;;;;13.60;9.88;;;;;;;7.07;100.00;96773.13;6434394;46;20112;-72
2021/10/17 23:23:33;;;;;;;17.30;10.10;;;;;;;6.89;100.00;96770.81;6434019;46;20315;-70
2021/10/17 23:28:36;;;;;;;25.50;10.52;;;;;;;7.00;100.00;96785.06;6434866;46;20094;-71
2021/10/17 23:33:38;;;;;;;22.88;12.18;;;;;;;6.71;100.00;96788.88;6434344;46;20653;-71
2021/10/17 23:38:41;;;;;;;19.00;9.73;;;;;;;6.77;100.00;96793.44;6433846;46;20130;-70
2021/10/17 23:43:44;;;;;;;13.70;9.88;;;;;;;7.00;100.00;96790.56;6434132;46;20094;-72
2021/10/17 23:48:47;;;;;;;11.15;8.13;;;;;;;7.09;100.00;96801.72;6421826;46;20104;-70